Terminal Aerodrome Forecast
Issued by NWS

Home | Current Version | Previous Version | Text Only | Print | Product List | Glossary On
Versions: 1 2 3 4 5 6 7 8 9 10 11 12
000
FTUS45 KABQ 281100
TAFGUP
TAF
KGUP 281131Z 2812/2912 VRB06KT P6SM SCT035 SCT050
     FM281600 26006KT P6SM SCT050 SCT070
     FM282100 30008KT P6SM SCT070 SCT120
     FM290200 VRB06KT P6SM SCT060 BKN140=

USA.gov is the U.S. government's official web portal to all federal, state and local government web resources and services.